createdAt,value
2023-05-11T00:00:55.193Z,98945.00
2023-05-11T00:03:26.906Z,98938.00
2023-05-11T00:05:55.983Z,98934.00
2023-05-11T00:08:22.819Z,98929.00
2023-05-11T00:10:50.131Z,98938.00
2023-05-11T00:13:18.344Z,98928.00
2023-05-11T00:15:45.659Z,98931.00
2023-05-11T00:18:15.212Z,98928.00
2023-05-11T00:20:42.684Z,98924.00
2023-05-11T00:23:09.771Z,98928.00
2023-05-11T00:25:44.456Z,98927.00
2023-05-11T00:28:16.708Z,98925.00
2023-05-11T00:30:44.892Z,98930.00
2023-05-11T00:33:14.307Z,98927.00
2023-05-11T00:35:41.352Z,98933.00
2023-05-11T00:38:11.354Z,98932.00
2023-05-11T00:40:38.342Z,98921.00
2023-05-11T00:43:05.310Z,98920.00
2023-05-11T00:45:35.749Z,98917.00
2023-05-11T00:48:04.877Z,98921.00
2023-05-11T00:50:31.885Z,98921.00
2023-05-11T00:53:00.177Z,98916.00
2023-05-11T00:55:28.542Z,98916.00
2023-05-11T00:57:55.671Z,98912.00
2023-05-11T01:00:26.008Z,98912.00
2023-05-11T01:02:53.857Z,98907.00
2023-05-11T01:05:21.105Z,98901.00
2023-05-11T01:08:32.973Z,98907.00
2023-05-11T01:11:40.862Z,98911.00
2023-05-11T01:14:27.164Z,98903.00
2023-05-11T01:17:01.267Z,98905.00
2023-05-11T01:20:02.626Z,98907.00
2023-05-11T01:23:02.898Z,98905.00
2023-05-11T01:26:25.733Z,98906.00
2023-05-11T01:29:27.130Z,98907.00
2023-05-11T01:31:56.995Z,98900.00
2023-05-11T01:34:28.449Z,98901.00
2023-05-11T01:37:03.385Z,98903.00
2023-05-11T01:39:54.117Z,98894.00
2023-05-11T01:42:40.049Z,98904.00
2023-05-11T01:45:13.069Z,98905.00
2023-05-11T01:47:48.911Z,98896.00
2023-05-11T01:50:24.954Z,98905.00
2023-05-11T01:52:56.498Z,98913.00
2023-05-11T01:55:28.454Z,98907.00
2023-05-11T01:57:56.490Z,98913.00
2023-05-11T02:00:24.080Z,98919.00
2023-05-11T02:02:53.621Z,98899.00
2023-05-11T02:05:23.839Z,98917.00
2023-05-11T02:07:58.394Z,98918.00
2023-05-11T02:10:30.554Z,98913.00
2023-05-11T02:12:59.470Z,98922.00
2023-05-11T02:15:31.139Z,98910.00
2023-05-11T02:17:59.485Z,98916.00
2023-05-11T02:20:33.870Z,98913.00
2023-05-11T02:23:02.327Z,98910.00
2023-05-11T02:25:32.087Z,98915.00
2023-05-11T02:27:59.050Z,98916.00
2023-05-11T02:30:32.035Z,98916.00
2023-05-11T02:33:06.397Z,98916.00
2023-05-11T02:35:39.512Z,98911.00
2023-05-11T02:38:13.505Z,98913.00
2023-05-11T02:40:47.994Z,98914.00
2023-05-11T02:43:27.422Z,98904.00
2023-05-11T02:46:13.425Z,98909.00
2023-05-11T02:48:47.183Z,98907.00
2023-05-11T02:51:17.634Z,98906.00
2023-05-11T02:53:49.978Z,98908.00
2023-05-11T02:56:19.013Z,98896.00
2023-05-11T02:58:52.082Z,98899.00
2023-05-11T03:01:19.950Z,98902.00
2023-05-11T03:03:51.213Z,98902.00
2023-05-11T03:06:21.280Z,98902.00
2023-05-11T03:08:48.697Z,98897.00
2023-05-11T03:11:18.008Z,98907.00
2023-05-11T03:13:46.577Z,98907.00
2023-05-11T03:16:19.593Z,98904.00
2023-05-11T03:18:50.232Z,98897.00
2023-05-11T03:21:22.801Z,98907.00
2023-05-11T03:23:51.050Z,98897.00
2023-05-11T03:26:21.755Z,98904.00
2023-05-11T03:28:52.560Z,98900.00
2023-05-11T03:31:21.820Z,98906.00
2023-05-11T03:33:54.065Z,98891.00
2023-05-11T03:36:31.782Z,98892.00
2023-05-11T03:39:09.343Z,98899.00
2023-05-11T03:41:39.801Z,98903.00
2023-05-11T03:44:10.745Z,98893.00
2023-05-11T03:46:41.186Z,98900.00
2023-05-11T03:49:11.409Z,98888.00
2023-05-11T03:51:45.952Z,98889.00
2023-05-11T03:54:18.044Z,98895.00
2023-05-11T03:56:50.869Z,98902.00
2023-05-11T03:59:20.623Z,98882.00
2023-05-11T04:01:53.378Z,98879.00
2023-05-11T04:04:21.507Z,98898.00
2023-05-11T04:06:53.700Z,98893.00
2023-05-11T04:09:28.160Z,98887.00
2023-05-11T04:11:55.189Z,98898.00
2023-05-11T04:14:22.054Z,98893.00
2023-05-11T04:16:53.317Z,98893.00
2023-05-11T04:19:20.326Z,98899.00
2023-05-11T04:21:47.330Z,98898.00
2023-05-11T04:24:14.502Z,98896.00
2023-05-11T04:26:41.436Z,98893.00
2023-05-11T04:29:08.412Z,98897.00
2023-05-11T04:31:35.476Z,98898.00
2023-05-11T04:34:02.519Z,98890.00
2023-05-11T04:36:29.398Z,98891.00
2023-05-11T04:38:56.270Z,98892.00
2023-05-11T04:41:24.047Z,98896.00
2023-05-11T04:43:51.042Z,98895.00
2023-05-11T04:46:17.920Z,98892.00
2023-05-11T04:48:44.789Z,98892.00
2023-05-11T04:51:11.712Z,98909.00
2023-05-11T04:53:38.521Z,98901.00
2023-05-11T04:56:05.864Z,98892.00
2023-05-11T04:58:32.687Z,98900.00
2023-05-11T05:00:59.542Z,98909.00
2023-05-11T05:03:26.502Z,98903.00
2023-05-11T05:05:53.648Z,98912.00
2023-05-11T05:08:21.539Z,98911.00
2023-05-11T05:10:48.526Z,98913.00
2023-05-11T05:13:18.042Z,98912.00
2023-05-11T05:15:45.219Z,98915.00
2023-05-11T05:18:12.208Z,98914.00
2023-05-11T05:20:39.762Z,98916.00
2023-05-11T05:23:06.854Z,98921.00
2023-05-11T05:25:33.803Z,98915.00
2023-05-11T05:28:00.819Z,98919.00
2023-05-11T05:30:28.221Z,98918.00
2023-05-11T05:32:55.260Z,98917.00
2023-05-11T05:35:22.443Z,98912.00
2023-05-11T05:37:49.291Z,98914.00
2023-05-11T05:40:16.547Z,98917.00
2023-05-11T05:42:44.004Z,98923.00
2023-05-11T05:45:12.553Z,98915.00
2023-05-11T05:47:41.863Z,98920.00
2023-05-11T05:50:09.440Z,98917.00
2023-05-11T05:52:36.289Z,98919.00
2023-05-11T05:55:03.307Z,98913.00
2023-05-11T05:57:30.646Z,98921.00
2023-05-11T05:59:57.614Z,98921.00
2023-05-11T06:02:24.559Z,98925.00
2023-05-11T06:04:51.499Z,98929.00
2023-05-11T06:07:18.491Z,98924.00
2023-05-11T06:09:45.426Z,98925.00
2023-05-11T06:12:12.355Z,98929.00
2023-05-11T06:14:39.308Z,98930.00
2023-05-11T06:17:06.226Z,98932.00
2023-05-11T06:19:33.106Z,98925.00
2023-05-11T06:21:59.970Z,98922.00
2023-05-11T06:24:26.913Z,98915.00
2023-05-11T06:26:53.792Z,98920.00
2023-05-11T06:29:22.318Z,98927.00
2023-05-11T06:31:52.733Z,98919.00
2023-05-11T06:34:20.731Z,98922.00
2023-05-11T06:36:48.730Z,98916.00
2023-05-11T06:39:15.768Z,98919.00
2023-05-11T06:41:42.828Z,98922.00
2023-05-11T06:44:09.952Z,98930.00
2023-05-11T06:46:36.860Z,98924.00
2023-05-11T06:49:03.765Z,98920.00
2023-05-11T06:51:30.875Z,98923.00
2023-05-11T06:53:57.745Z,98920.00
2023-05-11T06:56:24.566Z,98919.00
2023-05-11T06:58:51.406Z,98922.00
2023-05-11T07:01:18.346Z,98918.00
2023-05-11T07:03:45.390Z,98915.00
2023-05-11T07:06:12.209Z,98928.00
2023-05-11T07:08:39.225Z,98916.00
2023-05-11T07:11:07.261Z,98931.00
2023-05-11T07:13:34.162Z,98925.00
2023-05-11T07:16:01.260Z,98922.00
2023-05-11T07:18:28.169Z,98925.00
2023-05-11T07:20:55.094Z,98923.00
2023-05-11T07:23:22.220Z,98924.00
2023-05-11T07:25:49.613Z,98927.00
2023-05-11T07:28:16.695Z,98921.00
2023-05-11T07:30:43.592Z,98925.00
2023-05-11T07:33:10.512Z,98923.00
2023-05-11T07:35:37.611Z,98922.00
2023-05-11T07:38:06.174Z,98919.00
2023-05-11T07:40:33.109Z,98926.00
2023-05-11T07:43:00.742Z,98925.00
2023-05-11T07:45:27.769Z,98926.00
2023-05-11T07:47:54.704Z,98929.00
2023-05-11T07:50:23.850Z,98927.00
2023-05-11T07:52:51.745Z,98927.00
2023-05-11T07:55:20.517Z,98927.00
2023-05-11T07:57:47.724Z,98933.00
2023-05-11T08:00:15.461Z,98926.00
2023-05-11T08:02:42.921Z,98926.00
2023-05-11T08:05:10.210Z,98930.00
2023-05-11T08:07:39.628Z,98924.00
2023-05-11T08:10:08.964Z,98926.00
2023-05-11T08:12:37.343Z,98928.00
2023-05-11T08:15:05.897Z,98920.00
2023-05-11T08:17:33.021Z,98931.00
2023-05-11T08:19:59.887Z,98917.00
2023-05-11T08:22:26.809Z,98912.00
2023-05-11T08:24:53.668Z,98914.00
2023-05-11T08:27:20.558Z,98924.00
2023-05-11T08:29:47.527Z,98922.00
2023-05-11T08:32:14.409Z,98921.00
2023-05-11T08:34:41.462Z,98924.00
2023-05-11T08:37:08.388Z,98929.00
2023-05-11T08:39:46.622Z,98923.00
2023-05-11T08:42:17.186Z,98932.00
2023-05-11T08:44:45.572Z,98922.00
2023-05-11T08:49:43.003Z,98921.00
2023-05-11T08:52:11.523Z,98922.00
2023-05-11T08:54:38.984Z,98924.00
2023-05-11T08:57:07.123Z,98920.00
2023-05-11T08:59:34.287Z,98916.00
2023-05-11T09:02:02.289Z,98913.00
2023-05-11T09:04:29.988Z,98915.00
2023-05-11T09:06:58.339Z,98912.00
2023-05-11T09:09:25.343Z,98919.00
2023-05-11T09:11:54.309Z,98909.00
2023-05-11T09:14:27.060Z,98905.00
2023-05-11T09:16:54.192Z,98915.00
2023-05-11T09:19:21.859Z,98904.00
2023-05-11T09:21:48.677Z,98908.00
2023-05-11T09:24:15.588Z,98903.00
2023-05-11T09:26:42.549Z,98898.00
2023-05-11T09:29:09.847Z,98899.00
2023-05-11T09:31:47.471Z,98890.00
2023-05-11T09:34:20.144Z,98892.00
2023-05-11T09:36:57.053Z,98886.00
2023-05-11T09:39:44.633Z,98886.00
2023-05-11T09:42:23.377Z,98895.00
2023-05-11T09:44:50.221Z,98886.00
2023-05-11T09:47:22.566Z,98891.00
2023-05-11T09:49:49.645Z,98884.00
2023-05-11T09:52:18.743Z,98891.00
2023-05-11T09:54:47.903Z,98894.00
2023-05-11T09:57:31.966Z,98887.00
2023-05-11T10:00:00.491Z,98890.00
2023-05-11T10:02:32.488Z,98892.00
2023-05-11T10:05:01.698Z,98887.00
2023-05-11T10:07:36.151Z,98888.00
2023-05-11T10:10:09.007Z,98887.00
2023-05-11T10:12:39.253Z,98890.00
2023-05-11T10:15:09.410Z,98884.00
2023-05-11T10:17:37.641Z,98884.00
2023-05-11T10:20:06.776Z,98884.00
2023-05-11T10:22:33.835Z,98878.00
2023-05-11T10:25:01.495Z,98874.00
2023-05-11T10:30:35.735Z,98863.00
2023-05-11T10:33:05.961Z,98871.00
2023-05-11T10:35:33.866Z,98860.00
2023-05-11T10:38:01.617Z,98863.00
2023-05-11T10:40:36.204Z,98855.00
2023-05-11T10:43:45.911Z,98856.00
2023-05-11T10:46:47.576Z,98860.00
2023-05-11T10:50:37.315Z,98855.00
2023-05-11T10:53:43.974Z,98855.00
2023-05-11T10:56:38.264Z,98860.00
2023-05-11T10:59:49.905Z,98857.00
2023-05-11T11:02:18.788Z,98848.00
2023-05-11T11:04:52.095Z,98843.00
2023-05-11T11:07:19.574Z,98843.00
2023-05-11T11:10:06.600Z,98852.00
2023-05-11T11:12:36.860Z,98841.00
2023-05-11T11:15:08.166Z,98840.00
2023-05-11T11:17:36.301Z,98833.00
2023-05-11T11:20:09.061Z,98839.00
2023-05-11T11:22:38.902Z,98843.00
2023-05-11T11:25:10.664Z,98829.00
2023-05-11T11:27:40.534Z,98830.00
2023-05-11T11:30:21.013Z,98833.00
2023-05-11T11:32:53.385Z,98840.00
2023-05-11T11:35:42.478Z,98836.00
2023-05-11T11:38:19.616Z,98823.00
2023-05-11T11:40:54.833Z,98827.00
2023-05-11T11:43:26.133Z,98829.00
2023-05-11T11:45:56.668Z,98826.00
2023-05-11T11:48:35.901Z,98825.00
2023-05-11T11:51:07.059Z,98824.00
2023-05-11T11:53:41.118Z,98826.00
2023-05-11T11:56:29.044Z,98820.00
2023-05-11T11:59:00.920Z,98814.00
2023-05-11T12:01:36.030Z,98826.00
2023-05-11T12:04:05.931Z,98818.00
2023-05-11T12:06:43.051Z,98808.00
2023-05-11T12:09:10.514Z,98812.00
2023-05-11T12:11:38.428Z,98811.00
2023-05-11T12:14:09.056Z,98808.00
2023-05-11T12:16:35.898Z,98801.00
2023-05-11T12:19:04.323Z,98802.00
2023-05-11T12:21:32.491Z,98796.00
2023-05-11T12:24:05.025Z,98794.00
2023-05-11T12:26:34.238Z,98799.00
2023-05-11T12:29:14.611Z,98793.00
2023-05-11T12:31:44.441Z,98781.00
2023-05-11T12:34:16.185Z,98788.00
2023-05-11T12:36:45.228Z,98776.00
2023-05-11T12:39:26.780Z,98787.00
2023-05-11T12:41:56.328Z,98783.00
2023-05-11T12:44:26.438Z,98780.00
2023-05-11T12:46:54.349Z,98785.00
2023-05-11T12:49:26.698Z,98777.00
2023-05-11T12:52:01.539Z,98786.00
2023-05-11T12:54:32.375Z,98784.00
2023-05-11T12:57:02.827Z,98781.00
2023-05-11T12:59:41.782Z,98778.00
2023-05-11T13:02:21.619Z,98774.00
2023-05-11T13:04:48.872Z,98777.00
2023-05-11T13:07:25.861Z,98772.00
2023-05-11T13:10:00.982Z,98765.00
2023-05-11T13:12:31.910Z,98768.00
2023-05-11T13:15:12.826Z,98764.00
2023-05-11T13:17:42.477Z,98770.00
2023-05-11T13:20:20.043Z,98769.00
2023-05-11T13:22:49.368Z,98773.00
2023-05-11T13:25:20.833Z,98760.00
2023-05-11T13:27:47.920Z,98755.00
2023-05-11T13:30:15.085Z,98761.00
2023-05-11T13:32:42.077Z,98748.00
2023-05-11T13:35:09.603Z,98754.00
2023-05-11T13:37:36.908Z,98746.00
2023-05-11T13:40:06.913Z,98749.00
2023-05-11T13:42:33.920Z,98744.00
2023-05-11T13:45:01.069Z,98751.00
2023-05-11T13:47:27.973Z,98736.00
2023-05-11T13:49:55.885Z,98743.00
2023-05-11T13:52:22.858Z,98734.00
2023-05-11T13:54:49.720Z,98727.00
2023-05-11T13:57:16.815Z,98726.00
2023-05-11T13:59:43.715Z,98723.00
2023-05-11T14:02:11.615Z,98714.00
2023-05-11T14:04:40.406Z,98714.00
2023-05-11T14:07:07.898Z,98705.00
2023-05-11T14:09:34.834Z,98706.00
2023-05-11T14:12:01.757Z,98705.00
2023-05-11T14:14:28.639Z,98706.00
2023-05-11T14:16:56.242Z,98696.00
2023-05-11T14:19:23.216Z,98696.00
2023-05-11T14:21:50.167Z,98702.00
2023-05-11T14:24:16.970Z,98695.00
2023-05-11T14:26:43.930Z,98705.00
2023-05-11T14:29:11.190Z,98693.00
2023-05-11T14:31:51.882Z,98692.00
2023-05-11T14:34:19.075Z,98687.00
2023-05-11T14:36:46.105Z,98689.00
2023-05-11T14:39:13.156Z,98676.00
2023-05-11T14:41:40.121Z,98681.00
2023-05-11T14:44:24.363Z,98689.00
2023-05-11T14:46:51.464Z,98681.00
2023-05-11T14:49:18.500Z,98687.00
2023-05-11T14:51:46.788Z,98672.00
2023-05-11T14:54:15.082Z,98686.00
2023-05-11T14:56:59.530Z,98683.00
2023-05-11T14:59:32.314Z,98686.00
2023-05-11T15:02:02.377Z,98688.00
2023-05-11T15:04:31.270Z,98704.00
2023-05-11T15:06:58.212Z,98694.00
2023-05-11T15:09:28.270Z,98701.00
2023-05-11T15:11:55.633Z,98710.00
2023-05-11T15:14:22.540Z,98718.00
2023-05-11T15:16:49.505Z,98712.00
2023-05-11T15:19:17.611Z,98712.00
2023-05-11T15:21:44.645Z,98715.00
2023-05-11T15:24:11.576Z,98711.00
2023-05-11T15:26:38.579Z,98713.00
2023-05-11T15:29:05.438Z,98716.00
2023-05-11T15:31:32.923Z,98714.00
2023-05-11T15:33:59.770Z,98710.00
2023-05-11T15:36:29.747Z,98717.00
2023-05-11T15:38:58.120Z,98722.00
2023-05-11T15:41:25.395Z,98723.00
2023-05-11T15:43:52.771Z,98720.00
2023-05-11T15:46:19.740Z,98719.00
2023-05-11T15:48:46.881Z,98724.00
2023-05-11T15:51:14.104Z,98713.00
2023-05-11T15:53:41.028Z,98709.00
2023-05-11T15:56:08.447Z,98714.00
2023-05-11T15:58:35.545Z,98707.00
2023-05-11T16:01:02.874Z,98702.00
2023-05-11T16:03:29.871Z,98710.00
2023-05-11T16:05:56.739Z,98708.00
2023-05-11T16:08:23.682Z,98703.00
2023-05-11T16:10:51.712Z,98701.00
2023-05-11T16:13:18.587Z,98708.00
2023-05-11T16:15:45.569Z,98710.00
2023-05-11T16:18:14.034Z,98705.00
2023-05-11T16:20:41.034Z,98698.00
2023-05-11T16:23:08.094Z,98698.00
2023-05-11T16:25:34.965Z,98697.00
2023-05-11T16:28:01.758Z,98700.00
2023-05-11T16:30:29.259Z,98697.00
2023-05-11T16:32:56.253Z,98700.00
2023-05-11T16:35:23.403Z,98699.00
2023-05-11T16:37:50.393Z,98698.00
2023-05-11T16:40:21.008Z,98691.00
2023-05-11T16:42:48.906Z,98706.00
2023-05-11T16:45:16.508Z,98697.00
2023-05-11T16:47:46.835Z,98700.00
2023-05-11T16:50:14.894Z,98703.00
2023-05-11T16:52:42.556Z,98707.00
2023-05-11T16:55:09.887Z,98707.00
2023-05-11T16:57:36.922Z,98703.00
2023-05-11T17:00:04.416Z,98703.00
2023-05-11T17:02:31.404Z,98698.00
2023-05-11T17:04:58.338Z,98704.00
2023-05-11T17:07:26.204Z,98703.00
2023-05-11T17:09:56.988Z,98704.00
2023-05-11T17:12:24.643Z,98704.00
2023-05-11T17:14:51.617Z,98702.00
2023-05-11T17:17:35.308Z,98697.00
2023-05-11T17:20:06.065Z,98703.00
2023-05-11T17:22:33.596Z,98707.00
2023-05-11T17:25:03.419Z,98706.00
2023-05-11T17:27:36.260Z,98721.00
2023-05-11T17:30:04.649Z,98716.00
2023-05-11T17:32:31.948Z,98721.00
2023-05-11T17:35:00.825Z,98718.00
2023-05-11T17:37:32.165Z,98724.00
2023-05-11T17:40:01.411Z,98729.00
2023-05-11T17:42:28.884Z,98734.00
2023-05-11T17:44:56.030Z,98732.00
2023-05-11T17:47:23.126Z,98723.00
2023-05-11T17:49:50.523Z,98733.00
2023-05-11T17:52:17.530Z,98728.00
2023-05-11T17:54:44.380Z,98729.00
2023-05-11T17:57:11.277Z,98725.00
2023-05-11T17:59:38.261Z,98732.00
2023-05-11T18:02:05.306Z,98736.00
2023-05-11T18:04:32.161Z,98733.00
2023-05-11T18:07:00.200Z,98736.00
2023-05-11T18:09:27.039Z,98741.00
2023-05-11T18:11:53.906Z,98735.00
2023-05-11T18:14:20.967Z,98740.00
2023-05-11T18:16:49.348Z,98743.00
2023-05-11T18:19:16.290Z,98737.00
2023-05-11T18:21:43.255Z,98746.00
2023-05-11T18:24:10.547Z,98749.00
2023-05-11T18:26:37.953Z,98749.00
2023-05-11T18:29:04.770Z,98749.00
2023-05-11T18:31:31.981Z,98750.00
2023-05-11T18:33:59.177Z,98754.00
2023-05-11T18:36:26.439Z,98749.00
2023-05-11T18:38:53.823Z,98750.00
2023-05-11T18:41:20.812Z,98747.00
2023-05-11T18:43:52.196Z,98751.00
2023-05-11T18:46:20.370Z,98754.00
2023-05-11T18:48:50.012Z,98757.00
2023-05-11T18:51:20.235Z,98754.00
2023-05-11T18:53:47.153Z,98760.00
2023-05-11T18:56:15.133Z,98763.00
2023-05-11T18:58:42.134Z,98756.00
2023-05-11T19:01:09.240Z,98754.00
2023-05-11T19:03:36.517Z,98764.00
2023-05-11T19:06:03.527Z,98765.00
2023-05-11T19:08:30.589Z,98770.00
2023-05-11T19:10:57.476Z,98768.00
2023-05-11T19:13:25.224Z,98762.00
2023-05-11T19:15:52.055Z,98764.00
2023-05-11T19:18:19.056Z,98770.00
2023-05-11T19:20:46.355Z,98764.00
2023-05-11T19:23:13.333Z,98769.00
2023-05-11T19:25:40.445Z,98773.00
2023-05-11T19:28:07.261Z,98777.00
2023-05-11T19:30:34.125Z,98779.00
2023-05-11T19:33:01.039Z,98782.00
2023-05-11T19:35:28.294Z,98786.00
2023-05-11T19:37:55.259Z,98785.00
2023-05-11T19:42:54.714Z,98777.00
2023-05-11T19:45:21.711Z,98779.00
2023-05-11T19:47:48.628Z,98792.00
2023-05-11T19:50:15.612Z,98788.00
2023-05-11T19:52:42.496Z,98779.00
2023-05-11T19:55:09.640Z,98779.00
2023-05-11T19:57:37.723Z,98792.00
2023-05-11T20:00:07.240Z,98794.00
2023-05-11T20:02:36.077Z,98806.00
2023-05-11T20:05:04.159Z,98796.00
2023-05-11T20:07:31.998Z,98801.00
2023-05-11T20:09:58.992Z,98797.00
2023-05-11T20:12:25.849Z,98800.00
2023-05-11T20:14:53.245Z,98799.00
2023-05-11T20:17:20.214Z,98805.00
2023-05-11T20:19:47.153Z,98797.00
2023-05-11T20:22:14.150Z,98803.00
2023-05-11T20:24:41.132Z,98802.00
2023-05-11T20:27:09.669Z,98797.00
2023-05-11T20:29:38.800Z,98806.00
2023-05-11T20:32:06.912Z,98811.00
2023-05-11T20:34:34.162Z,98804.00
2023-05-11T20:37:01.368Z,98801.00
2023-05-11T20:39:28.335Z,98807.00
2023-05-11T20:41:59.399Z,98805.00
2023-05-11T20:44:26.949Z,98800.00
2023-05-11T20:46:53.679Z,98803.00
2023-05-11T20:49:31.213Z,98796.00
2023-05-11T20:52:06.411Z,98805.00
2023-05-11T20:54:34.995Z,98800.00
2023-05-11T20:57:05.553Z,98804.00
2023-05-11T21:02:02.903Z,98809.00
2023-05-11T21:04:31.302Z,98803.00
2023-05-11T21:06:58.243Z,98800.00
2023-05-11T21:09:25.553Z,98795.00
2023-05-11T21:11:52.603Z,98791.00
2023-05-11T21:14:20.101Z,98794.00
2023-05-11T21:16:47.744Z,98796.00
2023-05-11T21:19:16.418Z,98795.00
2023-05-11T21:21:43.645Z,98796.00
2023-05-11T21:24:10.584Z,98797.00
2023-05-11T21:26:37.608Z,98794.00
2023-05-11T21:29:04.471Z,98793.00
2023-05-11T21:31:31.554Z,98795.00
2023-05-11T21:33:58.613Z,98798.00
2023-05-11T21:36:25.483Z,98791.00
2023-05-11T21:38:52.299Z,98792.00
2023-05-11T21:41:19.148Z,98795.00
2023-05-11T21:43:46.040Z,98788.00
2023-05-11T21:46:13.156Z,98780.00
2023-05-11T21:48:40.136Z,98786.00
2023-05-11T21:51:07.232Z,98792.00
2023-05-11T21:53:34.178Z,98796.00
2023-05-11T21:56:01.033Z,98799.00
2023-05-11T21:58:27.833Z,98798.00
2023-05-11T22:00:56.817Z,98786.00
2023-05-11T22:03:24.117Z,98793.00
2023-05-11T22:05:58.872Z,98796.00
2023-05-11T22:08:25.791Z,98795.00
2023-05-11T22:10:52.631Z,98796.00
2023-05-11T22:13:19.777Z,98791.00
2023-05-11T22:15:47.135Z,98799.00
2023-05-11T22:18:14.005Z,98802.00
2023-05-11T22:20:40.972Z,98796.00
2023-05-11T22:23:08.065Z,98795.00
2023-05-11T22:25:35.024Z,98791.00
2023-05-11T22:28:01.875Z,98806.00
2023-05-11T22:30:28.698Z,98800.00
2023-05-11T22:32:55.705Z,98808.00
2023-05-11T22:35:22.907Z,98808.00
2023-05-11T22:37:49.813Z,98806.00
2023-05-11T22:40:17.123Z,98806.00
2023-05-11T22:42:44.146Z,98804.00
2023-05-11T22:45:11.243Z,98810.00
2023-05-11T22:47:38.237Z,98817.00
2023-05-11T22:50:08.419Z,98810.00
2023-05-11T22:52:36.328Z,98810.00
2023-05-11T22:55:03.994Z,98805.00
2023-05-11T22:57:30.847Z,98816.00
2023-05-11T22:59:57.894Z,98808.00
2023-05-11T23:02:24.921Z,98808.00
2023-05-11T23:04:52.973Z,98818.00
2023-05-11T23:07:20.003Z,98804.00
2023-05-11T23:09:47.595Z,98803.00
2023-05-11T23:12:14.321Z,98808.00
2023-05-11T23:14:41.786Z,98804.00
2023-05-11T23:17:09.144Z,98806.00
2023-05-11T23:19:36.188Z,98805.00
2023-05-11T23:22:03.264Z,98804.00
2023-05-11T23:24:30.155Z,98801.00
2023-05-11T23:26:57.056Z,98796.00
2023-05-11T23:29:24.371Z,98794.00
2023-05-11T23:31:51.498Z,98799.00
2023-05-11T23:34:18.972Z,98799.00
2023-05-11T23:36:46.605Z,98794.00
2023-05-11T23:39:13.753Z,98810.00
2023-05-11T23:41:40.689Z,98798.00
2023-05-11T23:44:07.573Z,98800.00
2023-05-11T23:46:34.499Z,98791.00
2023-05-11T23:49:01.871Z,98791.00
2023-05-11T23:51:28.782Z,98794.00
2023-05-11T23:53:55.913Z,98794.00
2023-05-11T23:56:22.816Z,98803.00
2023-05-11T23:58:50.513Z,98788.00
